Oceanus Leader — 3FDF7 — position and weather

sailwx.info

Track history (hours):
 
Tides and Currents Weather Stations Pressure Air Temp Water Temp Dewpoint Dewpoint Depression Visibility Wind Speed Wind Dir Waves Ship Positions

Oceanus Leader

Last reported at 2017-Oct-08 04:12 UTC. Time now 2017-Oct-19 00:21 UTC.
Position N 29°26' W 094°50'.
Warning: this ship's position is 10 days out of date.

Length 199 m; draft 8.3 m.

Type: Cargo ship. MMSI: 351026000.

Date/timePositionNaut miles runAvg speedWind from/ knotsBaromVisibWave heightAir tempDewpointWater temp
2017-Oct-08 04:12N 29°26' W 094°50'211.4
2017-Oct-08 04:00N 29°28' W 094°51'612.4
2017-Oct-08 03:30N 29°33' W 094°55'612.4
2017-Oct-08 03:00N 29°39' W 094°58'5 9.1
2017-Oct-08 02:30N 29°42' W 095°01'4 7.1
2017-Oct-08 02:00N 29°45' W 095°04'3 5.4
2017-Oct-08 01:30N 29°44' W 095°07'3 5.8
2017-Oct-08 01:00N 29°45' W 095°10'3 5.8
2017-Oct-08 00:30N 29°43' W 095°13'3 5.3
2017-Oct-08 00:00N 29°44' W 095°16'0 0.8
2017-Oct-07 23:25N 29°44' W 095°17'0 0.0
2017-Oct-07 22:58N 29°44' W 095°17'0 0.0
2017-Oct-07 22:28N 29°44' W 095°17'0 0.0
2017-Oct-07 21:58N 29°44' W 095°17'0 0.0
2017-Oct-07 21:25N 29°44' W 095°17'0 0.0
2017-Oct-07 20:58N 29°44' W 095°17'0 0.0
2017-Oct-07 20:28N 29°44' W 095°17'0 0.0
2017-Oct-07 19:52N 29°44' W 095°17'0 0.0
2017-Oct-07 19:19N 29°44' W 095°17'0 0.0
2017-Oct-07 18:55N 29°44' W 095°17'0 0.0
2017-Oct-07 18:28N 29°44' W 095°17'0 0.0
2017-Oct-07 17:52N 29°44' W 095°17'0 0.0
2017-Oct-07 17:28N 29°44' W 095°17'0 0.0
2017-Oct-07 16:58N 29°44' W 095°17'0 0.0
2017-Oct-07 16:28N 29°44' W 095°17'0 0.0
2017-Oct-07 15:58N 29°44' W 095°17'0 0.0
2017-Oct-07 15:28N 29°44' W 095°17'0 0.0
2017-Oct-07 14:55N 29°44' W 095°17'0 0.0
2017-Oct-07 14:25N 29°44' W 095°17'0 0.0
2017-Oct-07 13:55N 29°44' W 095°17'0 0.0
2017-Oct-07 13:28N 29°44' W 095°17'0 0.0
2017-Oct-07 12:55N 29°44' W 095°17'0 0.0
2017-Oct-07 12:28N 29°44' W 095°17'0 0.0
2017-Oct-07 11:58N 29°44' W 095°17'0 0.0
2017-Oct-07 11:28N 29°44' W 095°17'0 0.0
2017-Oct-07 10:58N 29°44' W 095°17'0 0.0
2017-Oct-07 10:28N 29°44' W 095°17'0 0.0
2017-Oct-07 09:58N 29°44' W 095°17'0 0.0
2017-Oct-07 09:28N 29°44' W 095°17'0 0.0
2017-Oct-07 08:55N 29°44' W 095°17'0 0.0
2017-Oct-07 08:28N 29°44' W 095°17'0 0.0
2017-Oct-07 07:40N 29°44' W 095°17'0 0.0
2017-Oct-07 07:25N 29°44' W 095°17'0 0.0
2017-Oct-07 06:55N 29°44' W 095°17'0 0.0
2017-Oct-07 06:28N 29°44' W 095°17'0 0.0
2017-Oct-07 05:19N 29°44' W 095°17'0 0.0
2017-Oct-07 04:49N 29°44' W 095°17'0 0.0
2017-Oct-07 02:43N 29°44' W 095°17'0 0.0
2017-Oct-07 02:25N 29°44' W 095°17'0 0.0
2017-Oct-07 01:55N 29°44' W 095°17'0 0.0
2017-Oct-06 23:58N 29°44' W 095°17'0 0.0
2017-Oct-06 23:28N 29°44' W 095°17'0 0.0
2017-Oct-06 22:55N 29°44' W 095°17'0 0.0
2017-Oct-06 22:19N 29°44' W 095°17'0 0.0
2017-Oct-06 21:49N 29°44' W 095°17'0 0.0
2017-Oct-06 21:25N 29°44' W 095°17'0 0.0
2017-Oct-06 20:55N 29°44' W 095°17'0 0.0
2017-Oct-06 20:13N 29°44' W 095°17'0 0.0
2017-Oct-06 19:46N 29°44' W 095°17'0 0.0
2017-Oct-06 19:19N 29°44' W 095°17'0 0.0
2017-Oct-06 18:55N 29°44' W 095°17'0 0.0
2017-Oct-06 18:07N 29°44' W 095°17'0 0.0
2017-Oct-06 17:49N 29°44' W 095°17'0 0.0
2017-Oct-06 17:25N 29°44' W 095°17'0 0.0
2017-Oct-06 16:49N 29°44' W 095°17'0 0.0
2017-Oct-06 16:25N 29°44' W 095°17'0 0.0
2017-Oct-06 15:40N 29°44' W 095°17'0 0.0
2017-Oct-06 14:22N 29°44' W 095°17'0 0.0
2017-Oct-06 13:58N 29°44' W 095°17'0 0.0
2017-Oct-06 13:07N 29°44' W 095°17'0 0.0
2017-Oct-06 12:55N 29°44' W 095°17'0 0.0
2017-Oct-06 12:25N 29°44' W 095°17'0 0.0
2017-Oct-06 11:25N 29°44' W 095°17'0 0.0
2017-Oct-06 10:40N 29°44' W 095°17'0 0.0
2017-Oct-06 10:10N 29°44' W 095°17'0 0.0
2017-Oct-06 09:55N 29°44' W 095°17'0 0.2
2017-Oct-06 09:30N 29°44' W 095°17'2 3.1
2017-Oct-06 08:57N 29°43' W 095°15'2 5.1
2017-Oct-06 08:30N 29°44' W 095°12'3 5.5
2017-Oct-06 08:00N 29°44' W 095°09'2 4.6
2017-Oct-06 07:30N 29°44' W 095°07'2 3.6
2017-Oct-06 07:00N 29°46' W 095°05'3 6.5
2017-Oct-06 06:30N 29°44' W 095°02'4 7.8
2017-Oct-06 06:00N 29°41' W 094°59'612.9
2017-Oct-06 05:30N 29°35' W 094°56'713.9
2017-Oct-06 05:00N 29°29' W 094°52'  
2017-Sep-29 23:20N 25°26' W 079°50'514.9
2017-Sep-29 23:00N 25°31' W 079°50'714.8
2017-Sep-29 22:30N 25°38' W 079°50'714.8
2017-Sep-29 22:00N 25°46' W 079°50'714.4
2017-Sep-29 21:30N 25°53' W 079°50'714.3
2017-Sep-29 21:00N 25°60' W 079°51'714.0
2017-Sep-29 20:30N 26°07' W 079°49'714.1
2017-Sep-29 20:00N 26°13' W 079°46'613.0
2017-Sep-29 19:30N 26°20' W 079°46'713.9
2017-Sep-29 19:00N 26°27' W 079°47'713.7
2017-Sep-29 18:30N 26°33' W 079°47'1813.4
2017-Sep-29 17:09N 26°52' W 079°48'214.0
2017-Sep-29 17:00N 26°54' W 079°48'714.0
2017-Sep-29 16:30N 27°01' W 079°48'23916.1
2017-Sep-29 01:42N 30°59' W 079°33'416.4
2017-Sep-29 01:27N 31°02' W 079°30'3416.3
2017-Sep-28 23:22N 31°29' W 079°05'18118.2
2017-Sep-28 13:23N 33°41' W 076°38'1817.1
2017-Sep-28 12:20N 33°53' W 076°21'516.0
2017-Sep-28 12:00N 33°56' W 076°16'816.0
2017-Sep-28 11:30N 34°01' W 076°09'815.6
2017-Sep-28 11:01N 34°06' W 076°02'815.3
2017-Sep-28 10:31N 34°11' W 075°54'815.1
2017-Sep-28 10:01N 34°15' W 075°47'  
Track history (hours):
 
Tides and Currents Weather Stations Pressure Air Temp Water Temp Dewpoint Dewpoint Depression Visibility Wind Speed Wind Dir Waves Ship Positions

Oceanus Leader

Last reported at 2017-Oct-08 04:12 UTC. Time now 2017-Oct-19 00:21 UTC.
Position N 29°26' W 094°50'.
Warning: this ship's position is 10 days out of date.

Length 199 m; draft 8.3 m.

Type: Cargo ship. MMSI: 351026000.

Date/timePositionNaut miles runAvg speedWind from/ knotsBaromVisibWave heightAir tempDewpointWater temp
2017-Oct-08 04:12N 29°26' W 094°50'211.4
2017-Oct-08 04:00N 29°28' W 094°51'612.4
2017-Oct-08 03:30N 29°33' W 094°55'612.4
2017-Oct-08 03:00N 29°39' W 094°58'5 9.1
2017-Oct-08 02:30N 29°42' W 095°01'4 7.1
2017-Oct-08 02:00N 29°45' W 095°04'3 5.4
2017-Oct-08 01:30N 29°44' W 095°07'3 5.8
2017-Oct-08 01:00N 29°45' W 095°10'3 5.8
2017-Oct-08 00:30N 29°43' W 095°13'3 5.3
2017-Oct-08 00:00N 29°44' W 095°16'0 0.8
2017-Oct-07 23:25N 29°44' W 095°17'0 0.0
2017-Oct-07 22:58N 29°44' W 095°17'0 0.0
2017-Oct-07 22:28N 29°44' W 095°17'0 0.0
2017-Oct-07 21:58N 29°44' W 095°17'0 0.0
2017-Oct-07 21:25N 29°44' W 095°17'0 0.0
2017-Oct-07 20:58N 29°44' W 095°17'0 0.0
2017-Oct-07 20:28N 29°44' W 095°17'0 0.0
2017-Oct-07 19:52N 29°44' W 095°17'0 0.0
2017-Oct-07 19:19N 29°44' W 095°17'0 0.0
2017-Oct-07 18:55N 29°44' W 095°17'0 0.0
2017-Oct-07 18:28N 29°44' W 095°17'0 0.0
2017-Oct-07 17:52N 29°44' W 095°17'0 0.0
2017-Oct-07 17:28N 29°44' W 095°17'0 0.0
2017-Oct-07 16:58N 29°44' W 095°17'0 0.0
2017-Oct-07 16:28N 29°44' W 095°17'0 0.0
2017-Oct-07 15:58N 29°44' W 095°17'0 0.0
2017-Oct-07 15:28N 29°44' W 095°17'0 0.0
2017-Oct-07 14:55N 29°44' W 095°17'0 0.0
2017-Oct-07 14:25N 29°44' W 095°17'0 0.0
2017-Oct-07 13:55N 29°44' W 095°17'0 0.0
2017-Oct-07 13:28N 29°44' W 095°17'0 0.0
2017-Oct-07 12:55N 29°44' W 095°17'0 0.0
2017-Oct-07 12:28N 29°44' W 095°17'0 0.0
2017-Oct-07 11:58N 29°44' W 095°17'0 0.0
2017-Oct-07 11:28N 29°44' W 095°17'0 0.0
2017-Oct-07 10:58N 29°44' W 095°17'0 0.0
2017-Oct-07 10:28N 29°44' W 095°17'0 0.0
2017-Oct-07 09:58N 29°44' W 095°17'0 0.0
2017-Oct-07 09:28N 29°44' W 095°17'0 0.0
2017-Oct-07 08:55N 29°44' W 095°17'0 0.0
2017-Oct-07 08:28N 29°44' W 095°17'0 0.0
2017-Oct-07 07:40N 29°44' W 095°17'0 0.0
2017-Oct-07 07:25N 29°44' W 095°17'0 0.0
2017-Oct-07 06:55N 29°44' W 095°17'0 0.0
2017-Oct-07 06:28N 29°44' W 095°17'0 0.0
2017-Oct-07 05:19N 29°44' W 095°17'0 0.0
2017-Oct-07 04:49N 29°44' W 095°17'0 0.0
2017-Oct-07 02:43N 29°44' W 095°17'0 0.0
2017-Oct-07 02:25N 29°44' W 095°17'0 0.0
2017-Oct-07 01:55N 29°44' W 095°17'0 0.0
2017-Oct-06 23:58N 29°44' W 095°17'0 0.0
2017-Oct-06 23:28N 29°44' W 095°17'0 0.0
2017-Oct-06 22:55N 29°44' W 095°17'0 0.0
2017-Oct-06 22:19N 29°44' W 095°17'0 0.0
2017-Oct-06 21:49N 29°44' W 095°17'0 0.0
2017-Oct-06 21:25N 29°44' W 095°17'0 0.0
2017-Oct-06 20:55N 29°44' W 095°17'0 0.0
2017-Oct-06 20:13N 29°44' W 095°17'0 0.0
2017-Oct-06 19:46N 29°44' W 095°17'0 0.0
2017-Oct-06 19:19N 29°44' W 095°17'0 0.0
2017-Oct-06 18:55N 29°44' W 095°17'0 0.0
2017-Oct-06 18:07N 29°44' W 095°17'0 0.0
2017-Oct-06 17:49N 29°44' W 095°17'0 0.0
2017-Oct-06 17:25N 29°44' W 095°17'0 0.0
2017-Oct-06 16:49N 29°44' W 095°17'0 0.0
2017-Oct-06 16:25N 29°44' W 095°17'0 0.0
2017-Oct-06 15:40N 29°44' W 095°17'0 0.0
2017-Oct-06 14:22N 29°44' W 095°17'0 0.0
2017-Oct-06 13:58N 29°44' W 095°17'0 0.0
2017-Oct-06 13:07N 29°44' W 095°17'0 0.0
2017-Oct-06 12:55N 29°44' W 095°17'0 0.0
2017-Oct-06 12:25N 29°44' W 095°17'0 0.0
2017-Oct-06 11:25N 29°44' W 095°17'0 0.0
2017-Oct-06 10:40N 29°44' W 095°17'0 0.0
2017-Oct-06 10:10N 29°44' W 095°17'0 0.0
2017-Oct-06 09:55N 29°44' W 095°17'0 0.2
2017-Oct-06 09:30N 29°44' W 095°17'2 3.1
2017-Oct-06 08:57N 29°43' W 095°15'2 5.1
2017-Oct-06 08:30N 29°44' W 095°12'3 5.5
2017-Oct-06 08:00N 29°44' W 095°09'2 4.6
2017-Oct-06 07:30N 29°44' W 095°07'2 3.6
2017-Oct-06 07:00N 29°46' W 095°05'3 6.5
2017-Oct-06 06:30N 29°44' W 095°02'4 7.8
2017-Oct-06 06:00N 29°41' W 094°59'612.9
2017-Oct-06 05:30N 29°35' W 094°56'713.9
2017-Oct-06 05:00N 29°29' W 094°52'  
2017-Sep-29 23:20N 25°26' W 079°50'514.9
2017-Sep-29 23:00N 25°31' W 079°50'714.8
2017-Sep-29 22:30N 25°38' W 079°50'714.8
2017-Sep-29 22:00N 25°46' W 079°50'714.4
2017-Sep-29 21:30N 25°53' W 079°50'714.3
2017-Sep-29 21:00N 25°60' W 079°51'714.0
2017-Sep-29 20:30N 26°07' W 079°49'714.1
2017-Sep-29 20:00N 26°13' W 079°46'613.0
2017-Sep-29 19:30N 26°20' W 079°46'713.9
2017-Sep-29 19:00N 26°27' W 079°47'713.7
2017-Sep-29 18:30N 26°33' W 079°47'1813.4
2017-Sep-29 17:09N 26°52' W 079°48'214.0
2017-Sep-29 17:00N 26°54' W 079°48'714.0
2017-Sep-29 16:30N 27°01' W 079°48'23916.1
2017-Sep-29 01:42N 30°59' W 079°33'416.4
2017-Sep-29 01:27N 31°02' W 079°30'3416.3
2017-Sep-28 23:22N 31°29' W 079°05'18118.2
2017-Sep-28 13:23N 33°41' W 076°38'1817.1
2017-Sep-28 12:20N 33°53' W 076°21'516.0
2017-Sep-28 12:00N 33°56' W 076°16'816.0
2017-Sep-28 11:30N 34°01' W 076°09'815.6
2017-Sep-28 11:01N 34°06' W 076°02'815.3
2017-Sep-28 10:31N 34°11' W 075°54'815.1
2017-Sep-28 10:01N 34°15' W 075°47'  

Dump ship's entire track history